Time;durP1;ratioP1;P1;durP2;ratioP2;P2;SDS_P1;SDS_P2;PMS_P1;PMS_P2;Temp;Humidity;BMP_temperature;BMP_pressure;BME280_temperature;BME280_humidity;BME280_pressure;Samples;Min_cycle;Max_cycle;Signal;HPM_P1;HPM_P2
2022/12/05 00:02:00;;;;;;;34.57;20.07;;;;;;;;;;5011312;28;20053;-62
2022/12/05 00:04:26;;;;;;;37.93;19.77;;;;;;;;;;5010327;28;20467;-61
2022/12/05 00:06:53;;;;;;;36.93;21.20;;;;;;;;;;5010179;28;20601;-61
2022/12/05 00:09:19;;;;;;;36.77;19.77;;;;;;;;;;5010105;28;20080;-62
2022/12/05 00:11:45;;;;;;;35.23;18.90;;;;;;;;;;5011285;28;20054;-61
2022/12/05 00:14:12;;;;;;;36.27;19.23;;;;;;;;;;5008732;28;20054;-62
2022/12/05 00:16:39;;;;;;;32.43;18.97;;;;;;;;;;5009996;28;20057;-61
2022/12/05 00:19:06;;;;;;;33.10;17.00;;;;;;;;;;5010883;28;20048;-62
2022/12/05 00:21:34;;;;;;;32.23;18.17;;;;;;;;;;5010763;28;20054;-61
2022/12/05 00:24:00;;;;;;;33.00;18.67;;;;;;;;;;5010588;28;20538;-62
2022/12/05 00:26:27;;;;;;;35.47;19.73;;;;;;;;;;5011054;28;20050;-61
2022/12/05 00:28:53;;;;;;;32.97;19.40;;;;;;;;;;5010583;28;20049;-61
2022/12/05 00:31:20;;;;;;;33.47;19.07;;;;;;;;;;5010553;28;20042;-61
2022/12/05 00:33:46;;;;;;;30.47;17.07;;;;;;;;;;5010492;28;20046;-62
2022/12/05 00:36:14;;;;;;;31.37;17.33;;;;;;;;;;5007826;28;20424;-61
2022/12/05 00:38:41;;;;;;;31.13;17.10;;;;;;;;;;4991139;28;20046;-62
2022/12/05 00:41:08;;;;;;;29.90;17.77;;;;;;;;;;4991181;28;20048;-62
2022/12/05 00:43:34;;;;;;;30.60;18.07;;;;;;;;;;4990665;28;20062;-62
2022/12/05 00:46:01;;;;;;;28.43;15.53;;;;;;;;;;4992393;28;20050;-62
2022/12/05 00:48:27;;;;;;;30.07;16.37;;;;;;;;;;4990547;28;20064;-62
2022/12/05 00:51:04;;;;;;;28.27;16.73;;;;;;;;;;4990994;28;20475;-61
2022/12/05 00:53:31;;;;;;;28.53;16.37;;;;;;;;;;4990590;28;20906;-61
2022/12/05 00:56:01;;;;;;;30.13;15.80;;;;;;;;;;4990343;28;20050;-61
2022/12/05 00:58:27;;;;;;;28.83;15.80;;;;;;;;;;4989756;28;20058;-62
2022/12/05 01:00:53;;;;;;;29.90;16.57;;;;;;;;;;4990347;28;20057;-61
2022/12/05 01:03:19;;;;;;;29.70;16.53;;;;;;;;;;4990890;28;20050;-62
2022/12/05 01:05:45;;;;;;;28.03;16.73;;;;;;;;;;4990068;28;20714;-61
2022/12/05 01:08:11;;;;;;;30.03;16.87;;;;;;;;;;4989262;28;20046;-62
2022/12/05 01:10:37;;;;;;;29.63;17.07;;;;;;;;;;4990498;28;20054;-61
2022/12/05 01:13:04;;;;;;;28.83;16.37;;;;;;;;;;4990327;28;20046;-61
2022/12/05 01:15:30;;;;;;;32.37;17.67;;;;;;;;;;4988857;28;20057;-61
2022/12/05 01:17:56;;;;;;;35.03;16.57;;;;;;;;;;5009756;28;20054;-61
2022/12/05 01:20:22;;;;;;;27.40;16.37;;;;;;;;;;5009525;28;20056;-62
2022/12/05 01:22:48;;;;;;;30.10;17.83;;;;;;;;;;5009950;28;20068;-61
2022/12/05 01:25:14;;;;;;;29.17;17.20;;;;;;;;;;5009956;28;20065;-62
2022/12/05 01:27:40;;;;;;;29.53;16.70;;;;;;;;;;5009796;28;20398;-61
2022/12/05 01:30:06;;;;;;;29.43;16.07;;;;;;;;;;5009844;28;20050;-62
2022/12/05 01:32:32;;;;;;;29.07;16.83;;;;;;;;;;5010564;28;20050;-61
2022/12/05 01:34:59;;;;;;;30.70;17.43;;;;;;;;;;5010798;28;20427;-61
2022/12/05 01:37:25;;;;;;;33.93;17.53;;;;;;;;;;5008999;28;20045;-61
2022/12/05 01:39:51;;;;;;;28.97;17.70;;;;;;;;;;5010210;28;20041;-61
2022/12/05 01:42:17;;;;;;;35.40;18.60;;;;;;;;;;5010451;28;20053;-62
2022/12/05 01:44:43;;;;;;;34.63;18.87;;;;;;;;;;5009556;28;20057;-61
2022/12/05 01:47:09;;;;;;;33.37;17.87;;;;;;;;;;5008333;28;20057;-61
2022/12/05 01:49:36;;;;;;;33.07;18.70;;;;;;;;;;4992332;28;20053;-62
2022/12/05 01:52:20;;;;;;;29.97;18.17;;;;;;;;;;4990524;28;20857;-61
2022/12/05 01:54:47;;;;;;;36.42;19.80;;;;;;;;;;4990419;28;20412;-62
2022/12/05 01:57:14;;;;;;;38.37;19.23;;;;;;;;;;4990700;28;20041;-61
2022/12/05 01:59:43;;;;;;;40.37;21.17;;;;;;;;;;4990718;28;20046;-62
2022/12/05 02:02:10;;;;;;;40.83;20.70;;;;;;;;;;4989992;28;20038;-62
2022/12/05 02:04:38;;;;;;;42.00;21.03;;;;;;;;;;4989997;28;20055;-62
2022/12/05 02:07:04;;;;;;;41.27;22.13;;;;;;;;;;4989493;28;20815;-62
2022/12/05 02:09:30;;;;;;;37.40;20.97;;;;;;;;;;4989241;28;20054;-62
2022/12/05 02:11:57;;;;;;;38.70;20.80;;;;;;;;;;4989439;28;20104;-62
2022/12/05 02:14:32;;;;;;;40.13;21.40;;;;;;;;;;4989298;28;20054;-62
2022/12/05 02:17:04;;;;;;;43.87;22.33;;;;;;;;;;4988482;28;20047;-62
2022/12/05 02:19:47;;;;;;;37.40;20.97;;;;;;;;;;4988997;28;20109;-62
2022/12/05 02:22:22;;;;;;;39.67;20.90;;;;;;;;;;4989226;28;20078;-62
2022/12/05 02:24:54;;;;;;;35.97;20.07;;;;;;;;;;4989012;28;20053;-62
2022/12/05 02:27:20;;;;;;;42.83;21.60;;;;;;;;;;4988911;28;20054;-61
2022/12/05 02:29:52;;;;;;;38.43;21.07;;;;;;;;;;4989334;28;20046;-62
2022/12/05 02:32:18;;;;;;;46.60;24.70;;;;;;;;;;4988076;28;20046;-62
2022/12/05 02:34:46;;;;;;;42.20;22.37;;;;;;;;;;4988849;28;20893;-62
2022/12/05 02:37:25;;;;;;;42.73;22.97;;;;;;;;;;4987907;28;20046;-62
2022/12/05 02:39:59;;;;;;;47.57;23.67;;;;;;;;;;4991837;28;20042;-62
2022/12/05 02:42:25;;;;;;;;;;;;;;;;;;4993552;28;20891;-62
2022/12/05 02:44:54;;;;;;;45.30;22.73;;;;;;;;;;4992895;28;19981;-63
2022/12/05 02:47:22;;;;;;;49.57;24.00;;;;;;;;;;5005529;28;20057;-62
2022/12/05 02:49:49;;;;;;;46.13;23.37;;;;;;;;;;5010625;28;20466;-62
2022/12/05 02:52:16;;;;;;;47.23;22.93;;;;;;;;;;5012545;28;20050;-62
2022/12/05 02:54:44;;;;;;;44.23;23.53;;;;;;;;;;5009527;28;20057;-62
2022/12/05 02:57:11;;;;;;;49.60;24.17;;;;;;;;;;4992757;28;20054;-62
2022/12/05 02:59:37;;;;;;;55.67;26.00;;;;;;;;;;4992905;28;20038;-62
2022/12/05 03:02:04;;;;;;;52.63;24.30;;;;;;;;;;4990988;28;20607;-62
2022/12/05 03:04:31;;;;;;;51.63;25.07;;;;;;;;;;4992622;28;20042;-62
2022/12/05 03:06:59;;;;;;;54.83;27.47;;;;;;;;;;4992605;28;20425;-63
2022/12/05 03:09:31;;;;;;;52.53;25.63;;;;;;;;;;4992697;28;20047;-62
2022/12/05 03:12:09;;;;;;;56.10;25.47;;;;;;;;;;4992077;28;20051;-62
2022/12/05 03:14:39;;;;;;;57.43;26.47;;;;;;;;;;4992382;28;20593;-62
2022/12/05 03:17:08;;;;;;;57.40;27.73;;;;;;;;;;4992017;28;20050;-62
2022/12/05 03:19:34;;;;;;;56.33;26.70;;;;;;;;;;4992292;28;20046;-62
2022/12/05 03:22:15;;;;;;;54.10;25.93;;;;;;;;;;4991329;28;20894;-62
2022/12/05 03:24:41;;;;;;;65.70;27.30;;;;;;;;;;4992069;28;20057;-62
2022/12/05 03:27:36;;;;;;;64.27;27.47;;;;;;;;;;4992421;28;20042;-63
2022/12/05 03:30:04;;;;;;;57.67;26.83;;;;;;;;;;4986931;28;20524;-62
2022/12/05 03:32:33;;;;;;;61.00;28.30;;;;;;;;;;4992064;28;20042;-62
2022/12/05 03:34:59;;;;;;;65.83;28.53;;;;;;;;;;4992241;28;20201;-62
2022/12/05 03:37:45;;;;;;;67.97;28.47;;;;;;;;;;4993067;28;20042;-62
2022/12/05 03:40:11;;;;;;;61.53;26.90;;;;;;;;;;5011788;28;20049;-62
2022/12/05 03:42:39;;;;;;;58.90;27.00;;;;;;;;;;5011151;28;20056;-62
2022/12/05 03:45:12;;;;;;;66.10;29.07;;;;;;;;;;5011714;28;20046;-62
2022/12/05 03:47:50;;;;;;;56.60;26.17;;;;;;;;;;5011713;28;20124;-63
2022/12/05 03:50:25;;;;;;;63.00;27.90;;;;;;;;;;5010093;28;20129;-62
2022/12/05 03:52:54;;;;;;;58.77;27.93;;;;;;;;;;4998023;28;20117;-62
2022/12/05 03:55:23;;;;;;;63.13;28.43;;;;;;;;;;4991771;28;20046;-62
2022/12/05 03:57:49;;;;;;;56.60;26.27;;;;;;;;;;4991430;28;20042;-62
2022/12/05 04:00:17;;;;;;;62.23;27.80;;;;;;;;;;4991991;28;20053;-62
2022/12/05 04:02:53;;;;;;;57.90;26.00;;;;;;;;;;4991590;28;20049;-62
2022/12/05 04:05:25;;;;;;;55.40;25.27;;;;;;;;;;4991682;28;20050;-61
2022/12/05 04:07:55;;;;;;;56.43;26.07;;;;;;;;;;4993105;28;20050;-62
2022/12/05 04:10:28;;;;;;;59.70;27.50;;;;;;;;;;4991636;28;20046;-62
2022/12/05 04:12:55;;;;;;;57.08;25.77;;;;;;;;;;4990386;28;20494;-63
2022/12/05 04:15:25;;;;;;;53.97;26.07;;;;;;;;;;4991271;28;20049;-63
2022/12/05 04:17:57;;;;;;;52.67;23.80;;;;;;;;;;4989502;28;20124;-62
2022/12/05 04:23:17;;;;;;;49.22;21.52;;;;;;;;;;4991144;28;20043;-62
2022/12/05 04:26:09;;;;;;;53.10;23.93;;;;;;;;;;4990464;28;20105;-62
2022/12/05 04:28:42;;;;;;;51.33;23.80;;;;;;;;;;4989105;28;20050;-62
2022/12/05 04:31:08;;;;;;;40.57;22.37;;;;;;;;;;4990107;28;20125;-62
2022/12/05 04:33:37;;;;;;;48.90;22.83;;;;;;;;;;4990766;28;20309;-62
2022/12/05 04:36:22;;;;;;;46.27;22.67;;;;;;;;;;4990493;28;20038;-62
2022/12/05 04:38:51;;;;;;;42.70;20.17;;;;;;;;;;4990974;28;20047;-62
2022/12/05 04:41:20;;;;;;;43.50;21.13;;;;;;;;;;4990913;28;20142;-62
2022/12/05 04:43:47;;;;;;;47.07;22.40;;;;;;;;;;4990559;28;20093;-62
2022/12/05 04:46:14;;;;;;;41.30;20.57;;;;;;;;;;4990671;28;20065;-62
2022/12/05 04:48:42;;;;;;;36.77;19.63;;;;;;;;;;4990083;28;20594;-63
2022/12/05 04:51:09;;;;;;;35.00;19.10;;;;;;;;;;4990691;28;20038;-62
2022/12/05 04:53:35;;;;;;;37.07;18.47;;;;;;;;;;4990540;28;20046;-62
2022/12/05 04:56:03;;;;;;;34.87;18.27;;;;;;;;;;4990828;28;20049;-62
2022/12/05 04:58:31;;;;;;;37.77;18.90;;;;;;;;;;4989582;28;20543;-62
2022/12/05 05:01:15;;;;;;;34.97;18.40;;;;;;;;;;4989024;28;20054;-62
2022/12/05 05:03:43;;;;;;;30.00;16.77;;;;;;;;;;4990192;28;20077;-63
2022/12/05 05:06:12;;;;;;;31.30;17.17;;;;;;;;;;4994228;28;20045;-62
2022/12/05 05:08:46;;;;;;;33.67;17.40;;;;;;;;;;4990078;28;20050;-62
2022/12/05 05:11:38;;;;;;;27.55;16.48;;;;;;;;;;4999389;28;20463;-63
2022/12/05 05:14:04;;;;;;;29.80;16.40;;;;;;;;;;5007937;28;20057;-62
2022/12/05 05:16:32;;;;;;;30.47;16.20;;;;;;;;;;5008836;28;20057;-62
2022/12/05 05:18:58;;;;;;;30.33;18.30;;;;;;;;;;5009843;28;20041;-62
2022/12/05 05:21:27;;;;;;;29.30;15.63;;;;;;;;;;5009679;28;20049;-62
2022/12/05 05:23:53;;;;;;;27.73;16.10;;;;;;;;;;5009031;28;20054;-62
2022/12/05 05:26:19;;;;;;;30.40;16.90;;;;;;;;;;4989404;28;20050;-62
2022/12/05 05:28:46;;;;;;;29.53;15.50;;;;;;;;;;4989530;28;20054;-62
2022/12/05 05:31:13;;;;;;;29.03;16.73;;;;;;;;;;4989896;28;20548;-62
2022/12/05 05:33:39;;;;;;;34.47;17.50;;;;;;;;;;4989563;28;20046;-63
2022/12/05 05:36:05;;;;;;;30.57;15.37;;;;;;;;;;4989622;28;20050;-62
2022/12/05 05:38:34;;;;;;;26.40;16.07;;;;;;;;;;4989906;28;20129;-62
2022/12/05 05:41:01;;;;;;;25.57;14.83;;;;;;;;;;4989686;28;20046;-62
2022/12/05 05:43:27;;;;;;;24.53;14.70;;;;;;;;;;4989621;28;20047;-62
2022/12/05 05:45:53;;;;;;;26.10;14.93;;;;;;;;;;4989417;28;20058;-62
2022/12/05 05:48:19;;;;;;;21.47;13.63;;;;;;;;;;4989579;28;20050;-62
2022/12/05 05:50:45;;;;;;;21.03;13.47;;;;;;;;;;4989376;28;20072;-62
2022/12/05 05:53:11;;;;;;;23.97;14.23;;;;;;;;;;4989158;28;20121;-62
2022/12/05 05:55:40;;;;;;;23.60;13.60;;;;;;;;;;4989240;28;20617;-62
2022/12/05 05:58:07;;;;;;;23.13;13.73;;;;;;;;;;4989134;28;20042;-62
2022/12/05 06:00:33;;;;;;;20.97;13.27;;;;;;;;;;4989102;28;20069;-62
2022/12/05 06:02:59;;;;;;;20.20;12.80;;;;;;;;;;4989064;28;20046;-62
2022/12/05 06:05:25;;;;;;;19.23;11.83;;;;;;;;;;4997760;28;20050;-62
2022/12/05 06:07:54;;;;;;;16.23;10.90;;;;;;;;;;5008071;28;20045;-61
2022/12/05 06:10:20;;;;;;;15.37;9.10;;;;;;;;;;5009129;28;20463;-62
2022/12/05 06:12:46;;;;;;;15.17;9.60;;;;;;;;;;5008287;28;20053;-63
2022/12/05 06:15:12;;;;;;;15.13;9.80;;;;;;;;;;5008098;28;20089;-62
2022/12/05 06:17:38;;;;;;;14.93;8.87;;;;;;;;;;5007694;28;20108;-63
2022/12/05 06:20:05;;;;;;;11.70;8.30;;;;;;;;;;5009193;28;20050;-63
2022/12/05 06:22:32;;;;;;;13.30;8.33;;;;;;;;;;5007714;28;20034;-62
2022/12/05 06:24:58;;;;;;;12.23;8.23;;;;;;;;;;5006433;28;20057;-63
2022/12/05 06:27:24;;;;;;;10.63;7.33;;;;;;;;;;4989768;28;20327;-63
2022/12/05 06:29:50;;;;;;;12.53;9.10;;;;;;;;;;4988847;28;20509;-63
2022/12/05 06:32:16;;;;;;;12.53;8.80;;;;;;;;;;4989238;28;20073;-64
2022/12/05 06:34:42;;;;;;;12.57;9.00;;;;;;;;;;4994943;28;20101;-63
2022/12/05 06:37:08;;;;;;;13.40;8.93;;;;;;;;;;4998106;28;20043;-62
2022/12/05 06:39:34;;;;;;;12.87;9.17;;;;;;;;;;4998293;28;20129;-62
2022/12/05 06:42:01;;;;;;;12.53;8.73;;;;;;;;;;4999717;28;20050;-62
2022/12/05 06:44:27;;;;;;;14.50;9.17;;;;;;;;;;4997788;28;20058;-63
2022/12/05 06:46:54;;;;;;;15.40;8.93;;;;;;;;;;4997988;28;20045;-63
2022/12/05 06:49:20;;;;;;;13.33;8.33;;;;;;;;;;4998383;28;20084;-62
2022/12/05 06:51:46;;;;;;;15.30;9.40;;;;;;;;;;4999437;28;20407;-62
2022/12/05 06:54:12;;;;;;;10.80;8.07;;;;;;;;;;4998306;28;20046;-63
2022/12/05 06:56:39;;;;;;;11.00;8.37;;;;;;;;;;4997847;28;20057;-63
2022/12/05 06:59:05;;;;;;;11.50;7.97;;;;;;;;;;4999648;28;20408;-62
2022/12/05 07:01:37;;;;;;;35.83;11.33;;;;;;;;;;4997131;28;20393;-63
2022/12/05 07:04:04;;;;;;;11.50;7.83;;;;;;;;;;4998980;28;20412;-63
2022/12/05 07:06:32;;;;;;;78.00;12.27;;;;;;;;;;5006026;28;20050;-63
2022/12/05 07:08:58;;;;;;;20.27;9.43;;;;;;;;;;5008580;28;20926;-63
2022/12/05 07:11:24;;;;;;;44.67;10.00;;;;;;;;;;5008749;28;20285;-63
2022/12/05 07:13:50;;;;;;;14.63;8.37;;;;;;;;;;5008403;28;20766;-62
2022/12/05 07:16:16;;;;;;;12.83;7.90;;;;;;;;;;5006940;28;20206;-63
2022/12/05 07:18:42;;;;;;;11.53;7.47;;;;;;;;;;5007063;28;20053;-62
2022/12/05 07:21:11;;;;;;;15.00;8.47;;;;;;;;;;5008402;28;20592;-63
2022/12/05 07:23:37;;;;;;;12.93;7.87;;;;;;;;;;5008927;28;20115;-62
2022/12/05 07:26:07;;;;;;;10.97;7.70;;;;;;;;;;5012128;28;21055;-62
2022/12/05 07:28:33;;;;;;;12.87;8.53;;;;;;;;;;5011881;28;20046;-63
2022/12/05 07:31:03;;;;;;;11.80;7.03;;;;;;;;;;5011987;28;20068;-63
2022/12/05 07:33:29;;;;;;;10.33;6.50;;;;;;;;;;5010416;28;20054;-64
2022/12/05 07:35:59;;;;;;;9.33;6.63;;;;;;;;;;4997561;28;20126;-62
2022/12/05 07:38:25;;;;;;;12.10;6.87;;;;;;;;;;4992539;28;20124;-62
2022/12/05 07:40:51;;;;;;;9.03;6.17;;;;;;;;;;4992034;28;20049;-62
2022/12/05 07:43:17;;;;;;;10.53;5.97;;;;;;;;;;4991435;28;20054;-62
2022/12/05 07:45:43;;;;;;;17.63;6.87;;;;;;;;;;4999522;28;20061;-62
2022/12/05 07:48:09;;;;;;;14.20;6.07;;;;;;;;;;5010678;28;20045;-62
2022/12/05 07:50:36;;;;;;;8.93;4.93;;;;;;;;;;5010911;28;20072;-62
2022/12/05 07:53:02;;;;;;;9.83;5.87;;;;;;;;;;5011365;28;20053;-63
2022/12/05 07:55:29;;;;;;;9.70;5.90;;;;;;;;;;5011568;28;20847;-62
2022/12/05 07:57:55;;;;;;;9.07;5.63;;;;;;;;;;5010539;28;20060;-62
2022/12/05 08:00:21;;;;;;;10.70;6.03;;;;;;;;;;5004600;28;20156;-63
2022/12/05 08:02:47;;;;;;;10.07;5.87;;;;;;;;;;5001897;28;20531;-63
2022/12/05 08:05:14;;;;;;;10.50;6.80;;;;;;;;;;4998120;28;20037;-63
2022/12/05 08:07:40;;;;;;;13.63;7.07;;;;;;;;;;4997870;28;20130;-62
2022/12/05 08:10:06;;;;;;;11.93;6.80;;;;;;;;;;4990959;28;20047;-62
2022/12/05 08:12:32;;;;;;;10.80;6.13;;;;;;;;;;4991207;28;20045;-63
2022/12/05 08:14:59;;;;;;;12.73;6.83;;;;;;;;;;4991194;28;20065;-63
2022/12/05 08:17:25;;;;;;;14.03;7.17;;;;;;;;;;4991621;28;20469;-64
2022/12/05 08:19:51;;;;;;;14.30;7.13;;;;;;;;;;5005968;28;20468;-64
2022/12/05 08:22:17;;;;;;;13.83;6.80;;;;;;;;;;5011017;28;20501;-64
2022/12/05 08:24:43;;;;;;;12.87;7.23;;;;;;;;;;5006820;28;20046;-63
2022/12/05 08:27:09;;;;;;;13.67;7.60;;;;;;;;;;5011392;28;20046;-64
2022/12/05 08:29:36;;;;;;;15.37;7.63;;;;;;;;;;5010746;28;20088;-63
2022/12/05 08:32:02;;;;;;;16.10;8.00;;;;;;;;;;5004238;28;20038;-63
2022/12/05 08:34:28;;;;;;;12.77;7.33;;;;;;;;;;4998636;28;20045;-63
2022/12/05 08:36:54;;;;;;;12.60;7.70;;;;;;;;;;5000091;28;20523;-63
2022/12/05 08:39:21;;;;;;;12.13;7.73;;;;;;;;;;5008260;28;20128;-62
2022/12/05 08:41:47;;;;;;;20.93;8.97;;;;;;;;;;5003655;28;20049;-62
2022/12/05 08:44:17;;;;;;;13.77;7.50;;;;;;;;;;5008077;28;20056;-62
2022/12/05 08:46:44;;;;;;;16.23;8.03;;;;;;;;;;5013729;28;20136;-62
2022/12/05 08:49:11;;;;;;;13.80;7.40;;;;;;;;;;5025800;28;20114;-63
2022/12/05 08:51:37;;;;;;;14.60;7.80;;;;;;;;;;5004126;28;20092;-63
2022/12/05 08:54:04;;;;;;;21.83;9.00;;;;;;;;;;5006674;28;20056;-63
2022/12/05 08:56:31;;;;;;;15.10;8.97;;;;;;;;;;4997144;28;20050;-64
2022/12/05 08:58:57;;;;;;;16.73;7.83;;;;;;;;;;5000896;28;20046;-64
2022/12/05 09:01:29;;;;;;;17.77;7.93;;;;;;;;;;4996879;28;20512;-64
2022/12/05 09:03:55;;;;;;;15.73;8.10;;;;;;;;;;5000941;28;20425;-64
2022/12/05 09:06:22;;;;;;;14.60;7.67;;;;;;;;;;4997701;28;20049;-63
2022/12/05 09:08:52;;;;;;;16.60;7.77;;;;;;;;;;4996615;28;20185;-64
2022/12/05 09:11:19;;;;;;;13.50;7.20;;;;;;;;;;5000603;28;20037;-64
2022/12/05 09:13:46;;;;;;;14.60;7.97;;;;;;;;;;5004473;28;20057;-64
2022/12/05 09:16:14;;;;;;;14.57;7.43;;;;;;;;;;5009420;28;20493;-63
2022/12/05 09:18:41;;;;;;;15.50;7.90;;;;;;;;;;5009662;28;20054;-64
2022/12/05 09:21:08;;;;;;;15.37;8.07;;;;;;;;;;5000919;28;20572;-64
2022/12/05 09:23:34;;;;;;;15.77;7.40;;;;;;;;;;5007885;28;20042;-64
2022/12/05 09:26:00;;;;;;;12.70;7.43;;;;;;;;;;5009281;28;20042;-61
2022/12/05 09:28:27;;;;;;;14.70;7.63;;;;;;;;;;5009538;28;20042;-61
2022/12/05 09:30:57;;;;;;;16.67;7.77;;;;;;;;;;5009369;28;20405;-62
2022/12/05 09:33:23;;;;;;;14.87;8.20;;;;;;;;;;5007730;28;20125;-61
2022/12/05 09:35:49;;;;;;;15.00;8.07;;;;;;;;;;5009080;28;20046;-61
2022/12/05 09:38:15;;;;;;;14.60;7.90;;;;;;;;;;5008681;28;20037;-62
2022/12/05 09:40:42;;;;;;;17.83;7.93;;;;;;;;;;5008685;28;20053;-62
2022/12/05 09:43:13;;;;;;;12.73;7.70;;;;;;;;;;5007645;28;20514;-62
2022/12/05 09:45:44;;;;;;;14.83;7.77;;;;;;;;;;5009088;28;20057;-62
2022/12/05 09:48:15;;;;;;;14.43;8.73;;;;;;;;;;5008488;28;20627;-62
2022/12/05 09:50:44;;;;;;;14.83;8.50;;;;;;;;;;5008812;28;20053;-62
2022/12/05 09:53:13;;;;;;;16.97;9.07;;;;;;;;;;5008934;28;20042;-61
2022/12/05 09:55:39;;;;;;;16.00;9.20;;;;;;;;;;5008589;28;20041;-62
2022/12/05 09:58:20;;;;;;;17.40;8.77;;;;;;;;;;5009000;28;20108;-62
2022/12/05 10:00:47;;;;;;;13.17;7.40;;;;;;;;;;5007848;28;20049;-62
2022/12/05 10:03:13;;;;;;;15.10;7.67;;;;;;;;;;5009008;28;20057;-62
2022/12/05 10:05:42;;;;;;;17.13;8.90;;;;;;;;;;5009013;28;20069;-62
2022/12/05 10:08:14;;;;;;;17.40;9.10;;;;;;;;;;5008307;28;20057;-62
2022/12/05 10:10:55;;;;;;;15.33;8.40;;;;;;;;;;5008726;28;20089;-62
2022/12/05 10:13:27;;;;;;;18.00;8.73;;;;;;;;;;5008576;28;20053;-62
2022/12/05 10:15:55;;;;;;;15.77;8.77;;;;;;;;;;5008474;28;20086;-61
2022/12/05 10:18:33;;;;;;;17.90;8.50;;;;;;;;;;5008249;28;20152;-62
2022/12/05 10:21:04;;;;;;;16.33;8.60;;;;;;;;;;5008730;28;20084;-62
2022/12/05 10:23:35;;;;;;;16.20;8.80;;;;;;;;;;5007451;28;20046;-62
2022/12/05 10:26:02;;;;;;;20.03;8.97;;;;;;;;;;5008510;28;20054;-62
2022/12/05 10:28:33;;;;;;;18.30;9.60;;;;;;;;;;5008410;28;20484;-62
2022/12/05 10:31:02;;;;;;;20.13;9.90;;;;;;;;;;5008772;28;20486;-63
2022/12/05 10:33:30;;;;;;;18.37;8.70;;;;;;;;;;5008370;28;20386;-62
2022/12/05 10:35:56;;;;;;;17.87;8.50;;;;;;;;;;5008145;28;20176;-63
2022/12/05 10:38:25;;;;;;;21.47;8.47;;;;;;;;;;5008555;28;20061;-62
2022/12/05 10:40:52;;;;;;;15.43;8.10;;;;;;;;;;5008752;28;20441;-63
2022/12/05 10:43:29;;;;;;;16.47;8.60;;;;;;;;;;5007785;28;20117;-63
2022/12/05 10:45:56;;;;;;;16.67;8.03;;;;;;;;;;5007160;28;20607;-63
2022/12/05 10:48:22;;;;;;;16.93;8.03;;;;;;;;;;5006807;28;20056;-63
2022/12/05 10:50:53;;;;;;;17.07;8.17;;;;;;;;;;5008193;28;20053;-63
2022/12/05 10:53:23;;;;;;;38.70;10.87;;;;;;;;;;5008095;28;20050;-63
2022/12/05 10:55:52;;;;;;;20.67;9.20;;;;;;;;;;5007134;28;20688;-63
2022/12/05 10:58:22;;;;;;;18.87;8.87;;;;;;;;;;5008060;28;20049;-63
2022/12/05 11:00:50;;;;;;;21.63;9.63;;;;;;;;;;5010212;28;20053;-63
2022/12/05 11:03:22;;;;;;;22.57;9.50;;;;;;;;;;5010402;28;20131;-63
2022/12/05 11:05:52;;;;;;;17.17;8.40;;;;;;;;;;5011808;28;20489;-64
2022/12/05 11:08:25;;;;;;;17.03;8.87;;;;;;;;;;5011821;28;20049;-63
2022/12/05 11:11:00;;;;;;;16.33;8.07;;;;;;;;;;5011461;28;20042;-63
2022/12/05 11:13:26;;;;;;;21.10;9.13;;;;;;;;;;5011651;28;20042;-63
2022/12/05 11:15:52;;;;;;;22.80;9.53;;;;;;;;;;5010436;28;20046;-63
2022/12/05 11:18:29;;;;;;;18.43;8.37;;;;;;;;;;4993357;28;20045;-63
2022/12/05 11:20:55;;;;;;;19.07;8.93;;;;;;;;;;5010471;28;20050;-63
2022/12/05 11:23:26;;;;;;;17.10;7.97;;;;;;;;;;5010642;28;20625;-63
2022/12/05 11:25:53;;;;;;;22.27;9.40;;;;;;;;;;5009981;28;20519;-63
2022/12/05 11:28:19;;;;;;;21.47;8.87;;;;;;;;;;5009057;28;20052;-63
2022/12/05 11:31:08;;;;;;;15.77;7.70;;;;;;;;;;5008548;28;20053;-63
2022/12/05 11:33:36;;;;;;;22.47;8.60;;;;;;;;;;5003334;28;20057;-63
2022/12/05 11:36:13;;;;;;;25.67;9.37;;;;;;;;;;5009027;28;20371;-63
2022/12/05 11:38:39;;;;;;;20.20;8.37;;;;;;;;;;5008783;28;20064;-66
2022/12/05 11:41:08;;;;;;;18.63;9.33;;;;;;;;;;5009764;28;20416;-64
2022/12/05 11:43:34;;;;;;;22.60;10.37;;;;;;;;;;5010495;28;20571;-64
2022/12/05 11:46:10;;;;;;;19.67;9.30;;;;;;;;;;5010509;28;20134;-64
2022/12/05 11:48:55;;;;;;;25.70;10.93;;;;;;;;;;5010477;28;20096;-64
2022/12/05 11:51:27;;;;;;;21.73;8.73;;;;;;;;;;5010438;28;20046;-65
2022/12/05 11:54:09;;;;;;;22.30;9.70;;;;;;;;;;5010005;28;20096;-65
2022/12/05 11:56:41;;;;;;;19.03;8.83;;;;;;;;;;5010537;28;20504;-65
2022/12/05 11:59:22;;;;;;;17.67;8.93;;;;;;;;;;5009206;28;20512;-65
2022/12/05 12:02:06;;;;;;;20.63;10.03;;;;;;;;;;5010505;28;20476;-65
2022/12/05 12:04:53;;;;;;;18.60;9.10;;;;;;;;;;5010202;28;20515;-65
2022/12/05 12:07:24;;;;;;;23.77;9.33;;;;;;;;;;5010249;28;20107;-66
2022/12/05 12:09:50;;;;;;;21.90;9.67;;;;;;;;;;4990226;28;20042;-65
2022/12/05 12:12:49;;;;;;;23.47;9.93;;;;;;;;;;4989219;28;20046;-65
2022/12/05 12:15:34;;;;;;;18.73;8.97;;;;;;;;;;4941381;28;20100;-65
2022/12/05 12:18:18;;;;;;;23.03;10.07;;;;;;;;;;4991054;28;20054;-65
2022/12/05 12:20:44;;;;;;;22.50;8.67;;;;;;;;;;4991038;28;20054;-65
2022/12/05 12:23:29;;;;;;;18.97;9.37;;;;;;;;;;4989335;28;20050;-65
2022/12/05 12:26:24;;;;;;;22.37;9.03;;;;;;;;;;4988554;28;20061;-65
2022/12/05 12:29:02;;;;;;;26.17;9.93;;;;;;;;;;4982262;28;20058;-65
2022/12/05 12:31:44;;;;;;;24.97;9.77;;;;;;;;;;4990937;28;20046;-65
2022/12/05 12:34:29;;;;;;;22.73;10.40;;;;;;;;;;4998227;28;20053;-66
2022/12/05 12:36:58;;;;;;;21.03;8.87;;;;;;;;;;4990835;28;20059;-65
2022/12/05 12:39:37;;;;;;;19.53;8.83;;;;;;;;;;4992048;28;20527;-65
2022/12/05 12:42:06;;;;;;;21.63;8.37;;;;;;;;;;4990330;28;20042;-65
2022/12/05 12:44:35;;;;;;;20.53;9.57;;;;;;;;;;4989273;28;20347;-66
2022/12/05 12:47:02;;;;;;;25.33;10.40;;;;;;;;;;4990666;28;20081;-66
2022/12/05 12:49:28;;;;;;;23.50;9.40;;;;;;;;;;4990496;28;20519;-65
2022/12/05 12:51:58;;;;;;;20.47;8.97;;;;;;;;;;4989287;28;20501;-65
2022/12/05 12:54:24;;;;;;;90.43;19.90;;;;;;;;;;4990200;28;20046;-66
2022/12/05 12:57:07;;;;;;;16.77;7.67;;;;;;;;;;4990537;28;20050;-65
2022/12/05 12:59:36;;;;;;;19.43;8.33;;;;;;;;;;4990517;28;20049;-66
2022/12/05 13:02:01;;;;;;;15.83;7.23;;;;;;;;;;4990189;28;20049;-65
2022/12/05 13:04:39;;;;;;;18.73;7.03;;;;;;;;;;4990593;28;20054;-65
2022/12/05 13:07:11;;;;;;;16.23;6.27;;;;;;;;;;4991906;28;20058;-66
2022/12/05 13:09:47;;;;;;;14.60;6.83;;;;;;;;;;4988709;28;20053;-66
2022/12/05 13:12:14;;;;;;;15.53;6.80;;;;;;;;;;4990237;28;20096;-66
2022/12/05 13:14:46;;;;;;;69.00;14.60;;;;;;;;;;4990011;28;20579;-66
2022/12/05 13:17:15;;;;;;;13.77;6.47;;;;;;;;;;4989655;28;20108;-66
2022/12/05 13:19:43;;;;;;;13.50;6.13;;;;;;;;;;4989265;28;20039;-66
2022/12/05 13:22:09;;;;;;;12.47;6.33;;;;;;;;;;4989090;28;20050;-66
2022/12/05 13:24:35;;;;;;;16.90;6.70;;;;;;;;;;4987727;28;20107;-67
2022/12/05 13:27:04;;;;;;;11.10;4.93;;;;;;;;;;4986083;28;20047;-66
2022/12/05 13:29:35;;;;;;;9.30;5.13;;;;;;;;;;4986483;28;20065;-66
2022/12/05 13:32:02;;;;;;;11.40;5.93;;;;;;;;;;4988076;28;20053;-64
2022/12/05 13:34:29;;;;;;;16.53;5.77;;;;;;;;;;4989605;28;20046;-67
2022/12/05 13:42:38;;;;;;;12.33;5.30;;;;;;;;;;4989163;28;20133;-66
2022/12/05 13:45:04;;;;;;;11.20;5.50;;;;;;;;;;4991017;28;20046;-66
2022/12/05 13:47:42;;;;;;;12.37;5.30;;;;;;;;;;4989571;28;20049;-66
2022/12/05 13:50:11;;;;;;;12.47;6.60;;;;;;;;;;4989760;28;20421;-65
2022/12/05 13:52:44;;;;;;;16.90;5.97;;;;;;;;;;5009102;28;20061;-66
2022/12/05 13:55:16;;;;;;;11.60;6.00;;;;;;;;;;5009324;28;20104;-66
2022/12/05 13:57:43;;;;;;;14.20;5.90;;;;;;;;;;5009299;28;20046;-65
2022/12/05 14:00:09;;;;;;;11.60;5.60;;;;;;;;;;5009111;28;20054;-65
2022/12/05 14:02:41;;;;;;;13.27;5.07;;;;;;;;;;5008471;28;20104;-66
2022/12/05 14:05:30;;;;;;;13.53;5.07;;;;;;;;;;5007934;28;20054;-65
2022/12/05 14:07:57;;;;;;;11.87;5.30;;;;;;;;;;4984853;28;20050;-66
2022/12/05 14:10:29;;;;;;;9.23;4.90;;;;;;;;;;4989005;28;20045;-66
2022/12/05 14:12:59;;;;;;;13.70;5.20;;;;;;;;;;4989630;28;20110;-66
2022/12/05 14:15:25;;;;;;;13.70;5.77;;;;;;;;;;4989521;28;20046;-66
2022/12/05 14:17:56;;;;;;;11.10;5.20;;;;;;;;;;4989201;28;20073;-66
2022/12/05 14:20:31;;;;;;;10.57;4.83;;;;;;;;;;4988438;28;20050;-65
2022/12/05 14:23:09;;;;;;;11.27;5.00;;;;;;;;;;4988924;28;20527;-66
2022/12/05 14:25:50;;;;;;;12.30;5.77;;;;;;;;;;4989366;28;20524;-66
2022/12/05 14:28:34;;;;;;;13.33;6.30;;;;;;;;;;4989208;28;20618;-65
2022/12/05 14:31:19;;;;;;;10.53;5.30;;;;;;;;;;4988821;28;20388;-65
2022/12/05 14:33:45;;;;;;;16.03;5.63;;;;;;;;;;4989891;28;20046;-66
2022/12/05 14:36:16;;;;;;;14.43;5.63;;;;;;;;;;5013106;28;20038;-66
2022/12/05 14:38:43;;;;;;;10.83;5.27;;;;;;;;;;5003353;28;20379;-66
2022/12/05 14:41:12;;;;;;;12.13;5.37;;;;;;;;;;4991278;28;20050;-65
2022/12/05 14:43:38;;;;;;;27.80;6.30;;;;;;;;;;4991648;28;20058;-66
2022/12/05 14:46:07;;;;;;;14.83;5.90;;;;;;;;;;4993006;28;20505;-66